Time;durP1;ratioP1;P1;durP2;ratioP2;P2;SDS_P1;SDS_P2;PMS_P1;PMS_P2;Temp;Humidity;BMP_temperature;BMP_pressure;BME280_temperature;BME280_humidity;BME280_pressure;Samples;Min_cycle;Max_cycle;Signal;HPM_P1;HPM_P2
2022/08/14 00:02:03;;;;;;;4.20;3.67;;;27.00;43.10;25.80;100975.00;;;;5070567;28;20082;-71
2022/08/14 00:04:49;;;;;;;4.35;3.42;;;27.00;43.10;25.80;100974.00;;;;5085505;28;20036;-71
2022/08/14 00:07:35;;;;;;;5.40;3.28;;;27.00;43.10;25.80;100973.00;;;;5083443;28;20032;-72
2022/08/14 00:10:22;;;;;;;3.83;3.50;;;27.00;43.20;25.80;100965.00;;;;5061598;28;20043;-72
2022/08/14 00:13:08;;;;;;;4.13;3.72;;;27.00;43.10;25.80;100970.00;;;;5082352;28;20513;-72
2022/08/14 00:15:55;;;;;;;4.55;3.38;;;27.00;43.10;25.80;100962.00;;;;5067874;28;20036;-72
2022/08/14 00:18:41;;;;;;;3.50;3.20;;;27.00;43.10;25.80;100964.00;;;;5092623;28;20028;-71
2022/08/14 00:21:27;;;;;;;4.88;3.50;;;27.00;43.10;25.80;100964.00;;;;5086848;28;20416;-72
2022/08/14 00:24:13;;;;;;;4.80;3.42;;;27.00;43.10;25.80;100968.00;;;;5093996;28;20093;-72
2022/08/14 00:26:59;;;;;;;5.07;3.78;;;27.00;43.20;25.80;100964.00;;;;5084541;28;20405;-72
2022/08/14 00:29:45;;;;;;;6.50;3.90;;;27.00;43.20;25.80;100958.00;;;;5093178;28;20052;-72
2022/08/14 00:32:31;;;;;;;4.70;4.03;;;27.00;43.40;25.80;100954.00;;;;5085788;28;20435;-72
2022/08/14 00:35:17;;;;;;;4.30;3.50;;;26.90;43.40;25.80;100957.00;;;;5089272;28;20534;-72
2022/08/14 00:38:04;;;;;;;6.40;4.03;;;26.90;43.50;25.80;100945.00;;;;5088804;28;20036;-72
2022/08/14 00:40:50;;;;;;;5.35;4.25;;;27.00;43.60;25.80;100945.00;;;;5069092;28;20047;-72
2022/08/14 00:43:36;;;;;;;4.63;3.97;;;27.00;43.60;25.80;100942.00;;;;5094137;28;20374;-72
2022/08/14 00:46:22;;;;;;;5.90;3.83;;;27.00;43.60;25.80;100944.00;;;;5075210;28;20048;-72
2022/08/14 00:49:08;;;;;;;4.72;3.88;;;27.00;43.50;25.80;100942.00;;;;5089790;28;20044;-72
2022/08/14 00:51:54;;;;;;;5.90;3.47;;;27.00;43.60;25.80;100944.00;;;;5081499;28;20040;-72
2022/08/14 00:54:42;;;;;;;4.22;3.83;;;26.90;43.50;25.80;100946.00;;;;5077045;28;20051;-72
2022/08/14 00:57:30;;;;;;;4.55;3.28;;;27.00;43.60;25.80;100944.00;;;;5085573;28;20039;-72
2022/08/14 01:00:16;;;;;;;4.22;3.83;;;27.00;43.60;25.80;100942.00;;;;5072110;28;20036;-72
2022/08/14 01:03:03;;;;;;;5.68;4.15;;;26.90;43.50;25.80;100932.00;;;;5087075;28;20035;-72
2022/08/14 01:05:50;;;;;;;5.50;3.55;;;27.00;43.60;25.80;100930.00;;;;5092785;28;20041;-73
2022/08/14 01:08:37;;;;;;;6.18;4.28;;;26.90;43.50;25.80;100918.00;;;;5079817;28;20047;-72
2022/08/14 01:11:23;;;;;;;8.73;3.97;;;26.90;43.50;25.80;100918.00;;;;5071485;28;20072;-72
2022/08/14 01:14:09;;;;;;;6.90;3.80;;;27.00;43.60;25.80;100922.00;;;;5080260;28;20314;-72
2022/08/14 01:16:56;;;;;;;10.32;3.90;;;27.00;43.70;25.80;100916.00;;;;5076264;28;20493;-72
2022/08/14 01:22:50;;;;;;;6.28;4.40;;;26.90;43.80;25.70;100916.00;;;;5094328;28;20044;-72
2022/08/14 01:25:37;;;;;;;4.53;4.07;;;27.00;43.90;25.70;100919.00;;;;5091945;28;20142;-72
2022/08/14 01:28:25;;;;;;;5.18;3.92;;;26.90;43.80;25.70;100909.00;;;;5085499;28;20046;-71
2022/08/14 01:31:16;;;;;;;5.00;4.53;;;26.90;43.90;25.70;100910.00;;;;5069482;28;20074;-71
2022/08/14 01:34:04;;;;;;;6.68;4.00;;;26.90;44.00;25.70;100907.00;;;;5086883;28;20046;-72
2022/08/14 01:36:51;;;;;;;;;;;26.90;43.90;25.70;100901.00;;;;5093359;28;20409;-71
2022/08/14 01:39:37;;;;;;;6.05;3.88;;;26.90;43.70;25.70;100890.00;;;;5094558;28;20314;-72
2022/08/14 01:42:24;;;;;;;4.70;4.25;;;26.90;43.80;25.70;100898.00;;;;5083628;28;20130;-71
2022/08/14 01:45:13;;;;;;;5.00;4.50;;;26.90;43.80;25.70;100887.00;;;;5088509;28;20105;-72
2022/08/14 01:47:59;;;;;;;5.00;4.50;;;26.90;43.90;25.70;100884.00;;;;5074521;28;20039;-72
2022/08/14 01:50:45;;;;;;;5.95;4.13;;;26.90;43.90;25.70;100882.00;;;;5091455;28;20450;-72
2022/08/14 01:53:31;;;;;;;7.32;4.55;;;26.90;43.90;25.70;100887.00;;;;5094813;28;20090;-72
2022/08/14 01:56:18;;;;;;;4.85;3.78;;;26.90;44.70;25.70;100874.00;;;;5092773;28;20401;-72
2022/08/14 01:59:16;;;;;;;4.45;3.85;;;26.90;44.00;25.70;100878.00;;;;5095677;28;20031;-72
2022/08/14 02:02:13;;;;;;;5.22;4.28;;;26.90;44.00;25.70;100873.00;;;;5090390;28;20393;-71
2022/08/14 02:04:59;;;;;;;4.63;4.13;;;26.90;44.00;25.70;100867.00;;;;5092825;28;20450;-72
2022/08/14 02:07:49;;;;;;;6.50;3.97;;;26.90;44.00;25.70;100867.00;;;;5074814;28;20112;-72
2022/08/14 02:10:35;;;;;;;5.32;3.90;;;26.90;44.10;25.70;100866.00;;;;5095266;28;20113;-72
2022/08/14 02:13:21;;;;;;;6.55;4.68;;;26.80;44.00;25.70;100863.00;;;;5086920;28;20044;-72
2022/08/14 02:16:08;;;;;;;6.43;4.43;;;26.90;44.10;25.70;100866.00;;;;5086497;28;20048;-72
2022/08/14 02:18:59;;;;;;;8.18;4.72;;;26.90;44.10;25.70;100862.00;;;;5092798;28;20063;-71
2022/08/14 02:21:47;;;;;;;7.72;4.32;;;26.80;44.10;25.70;100858.00;;;;5074234;28;20082;-72
2022/08/14 02:24:33;;;;;;;8.68;4.43;;;26.90;44.20;25.70;100857.00;;;;5076719;28;21772;-72
2022/08/14 02:27:19;;;;;;;7.97;4.50;;;26.90;44.20;25.70;100853.00;;;;5090949;28;20444;-72
2022/08/14 02:30:07;;;;;;;9.38;4.30;;;26.80;44.20;25.70;100852.00;;;;5088541;28;20128;-72
2022/08/14 02:32:53;;;;;;;5.82;4.30;;;27.00;44.40;25.70;100845.00;;;;5091179;28;20088;-71
2022/08/14 02:35:41;;;;;;;8.93;4.78;;;26.80;44.30;25.70;100838.00;;;;5089257;28;20168;-72
2022/08/14 02:38:27;;;;;;;8.10;4.15;;;26.80;44.30;25.70;100837.00;;;;5086231;28;20055;-72
2022/08/14 02:41:13;;;;;;;5.68;4.72;;;26.80;44.30;25.70;100834.00;;;;5092000;28;20075;-72
2022/08/14 02:43:59;;;;;;;7.18;4.05;;;26.80;44.30;25.70;100839.00;;;;5088193;28;20146;-71
2022/08/14 02:46:46;;;;;;;7.97;4.88;;;26.80;44.30;25.70;100844.00;;;;5077062;28;20545;-72
2022/08/14 02:49:32;;;;;;;5.20;4.25;;;26.80;44.40;25.70;100835.00;;;;5093133;28;20071;-72
2022/08/14 02:52:18;;;;;;;5.85;4.43;;;26.80;44.40;25.70;100823.00;;;;5091407;28;20048;-71
2022/08/14 02:55:05;;;;;;;5.55;4.32;;;26.80;44.40;25.70;100829.00;;;;5087358;28;20035;-72
2022/08/14 02:57:51;;;;;;;5.03;4.38;;;26.80;44.40;25.70;100825.00;;;;5078558;28;20094;-72
2022/08/14 03:00:37;;;;;;;8.18;4.50;;;26.80;44.40;25.70;100823.00;;;;5082377;28;20040;-72
2022/08/14 03:03:23;;;;;;;4.65;4.20;;;26.80;44.40;25.70;100825.00;;;;5085654;28;20040;-71
2022/08/14 03:06:10;;;;;;;6.68;4.88;;;26.90;44.50;25.70;100817.00;;;;5088531;28;20051;-72
2022/08/14 03:08:58;;;;;;;5.20;4.40;;;26.80;44.50;25.70;100813.00;;;;5077898;28;20035;-72
2022/08/14 03:11:44;;;;;;;6.40;4.53;;;26.80;44.50;25.70;100806.00;;;;5085548;28;20123;-72
2022/08/14 03:14:34;;;;;;;5.03;4.47;;;26.80;44.50;25.70;100807.00;;;;5094007;28;20113;-72
2022/08/14 03:17:20;;;;;;;4.97;4.20;;;26.80;44.50;25.70;100801.00;;;;5071224;28;20068;-72
2022/08/14 03:20:09;;;;;;;7.55;4.90;;;26.80;44.60;25.70;100802.00;;;;5090150;28;20608;-72
2022/08/14 03:22:58;;;;;;;5.72;4.40;;;26.80;44.50;25.70;100796.00;;;;5092396;28;20084;-72
2022/08/14 03:25:45;;;;;;;6.32;4.32;;;26.70;44.50;25.70;100795.00;;;;5090868;28;20045;-71
2022/08/14 03:28:31;;;;;;;4.82;4.32;;;26.80;44.50;25.70;100791.00;;;;5077476;28;20047;-71
2022/08/14 03:31:21;;;;;;;5.53;4.68;;;26.80;44.50;25.60;100792.00;;;;5074195;28;20105;-72
2022/08/14 03:34:09;;;;;;;5.93;4.38;;;26.80;44.50;25.60;100791.00;;;;5079198;28;20044;-71
2022/08/14 03:36:55;;;;;;;5.07;4.50;;;26.80;44.50;25.60;100780.00;;;;5074756;28;20111;-72
2022/08/14 03:39:41;;;;;;;9.52;5.07;;;26.80;44.50;25.60;100779.00;;;;5088109;28;20042;-71
2022/08/14 03:42:27;;;;;;;8.70;4.20;;;26.80;44.50;25.60;100786.00;;;;5085624;28;20497;-72
2022/08/14 03:45:16;;;;;;;5.15;4.40;;;26.80;44.50;25.60;100777.00;;;;5082217;28;20049;-72
2022/08/14 03:48:13;;;;;;;4.72;4.18;;;26.80;44.50;25.60;100780.00;;;;5074231;28;20040;-71
2022/08/14 03:51:00;;;;;;;4.90;4.03;;;26.80;44.60;25.60;100775.00;;;;5064902;28;20101;-71
2022/08/14 03:53:46;;;;;;;6.68;4.78;;;26.80;44.60;25.60;100783.00;;;;5087676;28;20072;-71
2022/08/14 03:56:33;;;;;;;6.90;4.10;;;26.80;44.60;25.60;100777.00;;;;5071978;28;20087;-71
2022/08/14 03:59:19;;;;;;;5.85;4.32;;;26.80;44.60;25.60;100774.00;;;;5089924;28;20031;-71
2022/08/14 04:02:05;;;;;;;5.65;4.35;;;26.70;44.50;25.70;100776.00;;;;5085611;28;20036;-72
2022/08/14 04:04:52;;;;;;;4.82;4.32;;;26.80;44.60;25.60;100764.00;;;;5073133;28;20465;-72
2022/08/14 04:07:38;;;;;;;5.85;4.28;;;26.80;45.30;25.70;100773.00;;;;5089662;28;20503;-72
2022/08/14 04:10:25;;;;;;;4.47;4.07;;;26.80;44.70;25.70;100770.00;;;;5088497;28;20039;-71
2022/08/14 04:13:11;;;;;;;5.43;4.53;;;26.80;44.70;25.70;100763.00;;;;5068506;28;20040;-71
2022/08/14 04:15:59;;;;;;;4.47;3.90;;;26.80;44.60;25.60;100768.00;;;;5072196;28;20068;-72
2022/08/14 04:18:50;;;;;;;4.20;3.80;;;26.80;44.70;25.70;100770.00;;;;5092606;28;20040;-71
2022/08/14 04:21:36;;;;;;;4.57;4.18;;;26.80;44.70;25.70;100770.00;;;;5087144;28;20040;-72
2022/08/14 04:24:22;;;;;;;3.95;3.65;;;26.80;44.70;25.70;100764.00;;;;5093444;28;20062;-71
2022/08/14 04:27:10;;;;;;;5.65;4.20;;;26.80;44.70;25.70;100764.00;;;;5087257;28;20041;-72
2022/08/14 04:29:57;;;;;;;4.53;4.10;;;26.80;44.80;25.60;100767.00;;;;5061034;28;20033;-72
2022/08/14 04:32:43;;;;;;;4.47;4.07;;;26.80;44.70;25.60;100763.00;;;;5092115;28;20043;-72
2022/08/14 04:35:29;;;;;;;5.03;4.53;;;26.80;44.70;25.70;100769.00;;;;5083781;28;20140;-72
2022/08/14 04:44:25;;;;;;;6.38;4.25;;;26.80;44.90;25.60;100773.00;;;;5089322;28;20501;-72
2022/08/14 04:50:15;;;;;;;7.13;4.63;;;26.80;44.90;25.60;100771.00;;;;5085310;28;20047;-72
2022/08/14 04:53:01;;;;;;;4.88;3.65;;;26.80;44.80;25.70;100769.00;;;;5091256;28;20089;-72
2022/08/14 04:55:48;;;;;;;5.30;4.78;;;26.80;44.90;25.60;100772.00;;;;5095659;28;20063;-71
2022/08/14 04:58:35;;;;;;;6.63;3.60;;;26.80;44.90;25.60;100771.00;;;;5094145;28;20036;-72
2022/08/14 05:01:21;;;;;;;4.23;3.87;;;26.80;44.90;25.70;100768.00;;;;5093503;28;20473;-72
2022/08/14 05:04:07;;;;;;;4.85;4.35;;;26.80;44.90;25.60;100761.00;;;;5098447;28;20067;-72
2022/08/14 05:06:54;;;;;;;4.97;3.92;;;26.80;44.90;25.60;100763.00;;;;5079328;28;20101;-72
2022/08/14 05:09:40;;;;;;;7.25;4.53;;;26.80;44.90;25.60;100765.00;;;;5100673;28;20074;-72
2022/08/14 05:12:27;;;;;;;6.32;3.95;;;26.80;45.00;25.70;100776.00;;;;5085804;28;20062;-72
2022/08/14 05:15:13;;;;;;;4.13;3.75;;;26.80;45.00;25.70;100777.00;;;;5093373;28;20044;-71
2022/08/14 05:18:01;;;;;;;4.88;4.38;;;26.80;45.10;25.60;100773.00;;;;5088584;28;20358;-71
2022/08/14 05:20:52;;;;;;;5.88;4.03;;;26.80;45.10;25.60;100777.00;;;;5092905;28;20414;-71
2022/08/14 05:23:39;;;;;;;4.75;4.10;;;26.80;45.20;25.70;100772.00;;;;5095580;28;20063;-71
2022/08/14 05:26:25;;;;;;;4.75;4.25;;;26.70;45.10;25.70;100774.00;;;;5086075;28;20505;-71
2022/08/14 05:29:11;;;;;;;6.35;4.22;;;26.80;45.10;25.60;100771.00;;;;5098358;28;20044;-72
2022/08/14 05:31:59;;;;;;;4.50;4.07;;;26.80;45.10;25.60;100771.00;;;;5088118;28;20040;-71
2022/08/14 05:34:46;;;;;;;4.40;3.88;;;26.80;45.10;25.70;100774.00;;;;5098259;28;20047;-72
2022/08/14 05:37:32;;;;;;;8.93;3.90;;;26.80;45.10;25.60;100776.00;;;;5090236;28;20042;-71
2022/08/14 05:40:18;;;;;;;4.68;4.00;;;26.80;45.00;25.60;100777.00;;;;5090054;28;20032;-72
2022/08/14 05:43:04;;;;;;;4.03;3.70;;;26.70;45.00;25.60;100767.00;;;;5080002;28;20039;-71
2022/08/14 05:45:50;;;;;;;5.30;4.40;;;26.70;45.00;25.60;100761.00;;;;5091732;28;20054;-72
2022/08/14 05:48:36;;;;;;;4.47;3.72;;;26.70;45.00;25.60;100765.00;;;;5095169;28;20114;-71
2022/08/14 05:51:23;;;;;;;4.25;3.78;;;26.70;45.00;25.60;100758.00;;;;5088070;28;20069;-71
2022/08/14 05:54:09;;;;;;;4.45;3.78;;;26.80;45.00;25.60;100757.00;;;;5081892;28;20128;-72
2022/08/14 05:56:55;;;;;;;6.95;4.03;;;26.70;45.00;25.70;100753.00;;;;5080672;28;20044;-72
2022/08/14 05:59:41;;;;;;;4.72;4.22;;;26.80;45.10;25.60;100753.00;;;;5081792;28;20037;-72
2022/08/14 06:02:27;;;;;;;4.85;4.35;;;26.80;45.10;25.70;100754.00;;;;5075631;28;20089;-72
2022/08/14 06:05:13;;;;;;;4.25;3.85;;;26.70;45.00;25.70;100755.00;;;;5079704;28;20413;-71
2022/08/14 06:07:59;;;;;;;5.63;4.28;;;26.70;45.00;25.70;100756.00;;;;5084527;28;20036;-71
2022/08/14 06:10:46;;;;;;;3.55;3.25;;;26.70;45.00;25.60;100748.00;;;;5077945;28;20043;-71
2022/08/14 06:13:36;;;;;;;4.82;4.32;;;26.70;45.00;25.70;100738.00;;;;5079033;28;20067;-72
2022/08/14 06:16:23;;;;;;;4.03;3.63;;;26.70;45.10;25.70;100738.00;;;;5074854;28;20557;-72
2022/08/14 06:19:09;;;;;;;4.10;3.70;;;26.80;45.90;25.70;100722.00;;;;5097813;28;20039;-72
2022/08/14 06:21:55;;;;;;;4.53;3.83;;;26.80;45.20;25.70;100735.00;;;;5068466;28;20061;-72
2022/08/14 06:24:41;;;;;;;4.20;3.80;;;26.80;45.30;25.70;100728.00;;;;5092468;28;20040;-72
2022/08/14 06:27:27;;;;;;;4.15;3.75;;;26.80;45.30;25.70;100735.00;;;;5073117;28;20037;-72
2022/08/14 06:30:18;;;;;;;4.18;3.78;;;26.70;45.20;25.70;100726.00;;;;5079857;28;20044;-72
2022/08/14 06:33:04;;;;;;;4.65;4.10;;;26.80;45.30;25.70;100729.00;;;;5078790;28;20109;-72
2022/08/14 06:35:50;;;;;;;5.38;4.35;;;26.80;45.40;25.70;100737.00;;;;5083649;28;20036;-72
2022/08/14 06:38:36;;;;;;;5.75;4.15;;;26.80;45.40;25.70;100731.00;;;;5072495;28;20374;-72
2022/08/14 06:41:23;;;;;;;7.65;3.72;;;26.80;45.40;25.70;100732.00;;;;5084764;28;20477;-72
2022/08/14 06:44:09;;;;;;;4.97;3.60;;;26.80;45.50;25.70;100738.00;;;;5091422;28;20089;-72
2022/08/14 06:46:55;;;;;;;6.57;4.10;;;26.80;45.50;25.70;100736.00;;;;5088164;28;20051;-72
2022/08/14 06:49:41;;;;;;;5.50;3.92;;;26.80;45.50;25.70;100737.00;;;;5096536;28;20105;-71
2022/08/14 06:52:27;;;;;;;9.88;4.22;;;26.70;45.50;25.70;100730.00;;;;5086185;28;20405;-72
2022/08/14 06:55:14;;;;;;;6.15;3.60;;;26.80;45.60;25.70;100729.00;;;;5088666;28;20050;-72
2022/08/14 06:58:00;;;;;;;12.25;4.18;;;26.80;45.60;25.70;100723.00;;;;5085091;28;20047;-72
2022/08/14 07:06:55;;;;;;;14.13;4.55;;;26.80;45.80;25.70;100715.00;;;;5069107;28;20069;-72
2022/08/14 07:09:41;;;;;;;12.00;4.80;;;26.80;45.80;25.70;100719.00;;;;5092467;28;20043;-71
2022/08/14 07:12:27;;;;;;;8.50;3.92;;;26.80;45.90;25.70;100723.00;;;;5082107;28;20419;-72
2022/08/14 07:15:13;;;;;;;10.23;3.97;;;26.80;45.80;25.70;100722.00;;;;5088736;28;20054;-71
2022/08/14 07:17:59;;;;;;;13.60;5.20;;;26.80;45.80;25.70;100719.00;;;;5076274;28;20039;-72
2022/08/14 07:20:45;;;;;;;11.90;5.20;;;26.80;45.80;25.70;100715.00;;;;5056292;28;20104;-72
2022/08/14 07:23:32;;;;;;;7.93;4.03;;;26.70;45.80;25.70;100709.00;;;;5087385;28;20043;-72
2022/08/14 07:26:18;;;;;;;10.02;4.68;;;26.80;45.90;25.70;100705.00;;;;5075321;28;20532;-72
2022/08/14 07:29:04;;;;;;;9.95;4.57;;;26.80;45.90;25.70;100705.00;;;;5088375;28;20037;-72
2022/08/14 07:31:50;;;;;;;10.55;5.13;;;26.80;46.00;25.70;100703.00;;;;5087541;28;20488;-71
2022/08/14 07:34:36;;;;;;;8.73;4.43;;;26.80;46.00;25.70;100703.00;;;;5093330;28;21879;-72
2022/08/14 07:37:22;;;;;;;8.68;4.55;;;26.80;46.00;25.70;100702.00;;;;5084013;28;20050;-72
2022/08/14 07:40:09;;;;;;;9.98;4.43;;;26.80;46.00;25.70;100697.00;;;;5090520;28;20078;-72
2022/08/14 07:42:56;;;;;;;10.25;4.15;;;26.80;46.00;25.70;100705.00;;;;5082390;28;20042;-71
2022/08/14 07:45:42;;;;;;;7.45;3.88;;;26.80;46.00;25.70;100708.00;;;;5084878;28;20046;-71
2022/08/14 07:48:28;;;;;;;7.53;4.25;;;26.80;46.00;25.70;100704.00;;;;5089209;28;20139;-71
2022/08/14 07:51:14;;;;;;;8.88;4.25;;;26.80;46.00;25.70;100715.00;;;;5084533;28;20135;-72
2022/08/14 07:54:00;;;;;;;4.70;4.07;;;26.80;46.10;25.70;100713.00;;;;5089313;28;20127;-72
2022/08/14 07:56:46;;;;;;;5.07;3.80;;;26.80;46.00;25.70;100705.00;;;;5076513;28;20031;-72
2022/08/14 07:59:32;;;;;;;6.97;4.63;;;26.80;46.10;25.70;100702.00;;;;5072611;28;20180;-72
2022/08/14 08:02:19;;;;;;;6.90;4.10;;;26.80;46.10;25.70;100701.00;;;;5069713;28;20054;-71
2022/08/14 08:05:06;;;;;;;7.20;4.05;;;26.70;46.00;25.70;100702.00;;;;5081087;28;20036;-71
2022/08/14 08:07:53;;;;;;;5.90;3.95;;;26.80;46.10;25.70;100702.00;;;;5062653;28;20040;-71
2022/08/14 08:10:40;;;;;;;8.48;3.95;;;26.80;46.20;25.70;100696.00;;;;5084366;28;20481;-71
2022/08/14 08:13:27;;;;;;;8.40;4.15;;;26.80;46.10;25.70;100696.00;;;;5061226;28;20040;-72
2022/08/14 08:16:13;;;;;;;13.88;4.43;;;26.80;46.20;25.70;100697.00;;;;5070901;28;20051;-72
2022/08/14 08:18:59;;;;;;;8.68;4.95;;;26.80;46.50;25.70;100692.00;;;;5073305;28;20482;-72
2022/08/14 08:21:46;;;;;;;9.23;4.82;;;26.80;46.60;25.70;100689.00;;;;5085881;28;20036;-72
2022/08/14 08:24:33;;;;;;;8.93;4.88;;;26.80;46.70;25.70;100687.00;;;;5081353;28;20036;-72
2022/08/14 08:27:19;;;;;;;5.63;5.03;;;26.80;46.50;25.70;100679.00;;;;5087202;28;20048;-73
2022/08/14 08:30:09;;;;;;;7.85;5.38;;;26.80;46.90;25.70;100678.00;;;;5087209;28;20032;-72
2022/08/14 08:32:57;;;;;;;21.38;5.57;;;26.80;46.80;25.70;100678.00;;;;5078745;28;20051;-72
2022/08/14 08:35:43;;;;;;;13.45;4.75;;;26.80;47.10;25.80;100671.00;;;;5073228;28;20040;-72
2022/08/14 08:38:29;;;;;;;10.60;5.25;;;26.80;46.90;25.80;100665.00;;;;5074325;28;20048;-72
2022/08/14 08:41:15;;;;;;;12.87;5.63;;;26.90;47.10;25.80;100673.00;;;;5079229;28;20117;-72
2022/08/14 08:44:05;;;;;;;15.60;6.65;;;26.90;47.30;25.80;100664.00;;;;5076818;28;20028;-72
2022/08/14 08:46:57;;;;;;;11.27;6.28;;;26.90;47.70;25.80;100668.00;;;;5081210;28;20032;-72
2022/08/14 08:49:43;;;;;;;16.60;6.20;;;26.90;47.60;25.80;100651.00;;;;5089834;28;20103;-72
2022/08/14 08:52:29;;;;;;;15.40;6.07;;;26.80;47.40;25.80;100640.00;;;;5070153;28;20032;-71
2022/08/14 08:55:23;;;;;;;6.93;5.53;;;27.00;47.20;25.80;100639.00;;;;5076605;28;20032;-72
2022/08/14 08:58:18;;;;;;;8.15;6.05;;;26.90;47.10;25.80;100640.00;;;;5086635;28;20553;-72
2022/08/14 09:01:04;;;;;;;5.88;5.28;;;26.90;47.10;25.80;100634.00;;;;5069163;28;20113;-71
2022/08/14 09:03:51;;;;;;;10.77;5.63;;;26.90;47.10;25.80;100629.00;;;;5078803;28;20086;-72
2022/08/14 09:06:45;;;;;;;9.27;5.65;;;26.90;47.10;25.80;100627.00;;;;5072202;28;20032;-72
2022/08/14 09:09:31;;;;;;;10.50;5.68;;;26.90;47.20;25.80;100630.00;;;;5067488;28;20393;-73
2022/08/14 09:12:18;;;;;;;9.85;5.95;;;27.00;47.20;25.80;100623.00;;;;5070763;28;20059;-73
2022/08/14 09:15:05;;;;;;;7.32;4.97;;;26.90;47.10;25.80;100619.00;;;;5066723;28;20055;-73
2022/08/14 09:17:52;;;;;;;7.40;5.15;;;26.90;47.10;25.80;100618.00;;;;5079984;28;20476;-74
2022/08/14 09:20:39;;;;;;;7.85;4.93;;;26.90;47.00;25.80;100618.00;;;;5075411;28;21333;-73
2022/08/14 09:23:25;;;;;;;6.15;4.88;;;27.00;47.00;25.80;100618.00;;;;5087009;28;20112;-73
2022/08/14 09:26:11;;;;;;;7.55;4.97;;;26.90;46.90;25.70;100611.00;;;;5080507;28;20044;-73
2022/08/14 09:28:57;;;;;;;8.63;5.13;;;26.90;46.90;25.80;100614.00;;;;5075399;28;20116;-73
2022/08/14 09:31:45;;;;;;;6.90;5.00;;;26.90;46.90;25.80;100621.00;;;;5081343;28;20397;-73
2022/08/14 09:35:02;;;;;;;7.80;4.90;;;26.90;46.90;25.80;100610.00;;;;5072461;28;20059;-73
2022/08/14 09:38:15;;;;;;;11.00;4.65;;;26.90;46.90;25.70;100612.00;;;;5078472;28;20401;-73
2022/08/14 09:41:48;;;;;;;7.18;4.75;;;26.90;46.90;25.80;100616.00;;;;5070417;28;20039;-73
2022/08/14 09:45:09;;;;;;;7.13;4.57;;;26.90;46.90;25.70;100616.00;;;;5086823;28;20044;-73
2022/08/14 09:47:56;;;;;;;5.18;4.68;;;26.90;46.90;25.70;100602.00;;;;5082458;28;20081;-73
2022/08/14 09:50:50;;;;;;;6.30;4.70;;;26.90;46.90;25.70;100605.00;;;;5071845;28;20040;-73
2022/08/14 09:53:57;;;;;;;7.40;4.43;;;26.90;46.90;25.70;100601.00;;;;5084211;28;20047;-73
2022/08/14 09:56:45;;;;;;;6.70;5.05;;;26.90;46.90;25.70;100592.00;;;;5068667;28;20043;-73
2022/08/14 09:59:43;;;;;;;4.95;4.38;;;26.90;46.90;25.70;100592.00;;;;5076050;28;20039;-73
2022/08/14 10:02:32;;;;;;;4.50;4.05;;;26.90;46.90;25.70;100594.00;;;;5080666;28;20067;-73
2022/08/14 10:05:32;;;;;;;10.93;4.88;;;26.90;46.90;25.70;100594.00;;;;5071901;28;20496;-75
2022/08/14 10:08:19;;;;;;;5.07;4.57;;;26.90;46.80;25.80;100579.00;;;;5089712;28;20032;-72
2022/08/14 10:11:22;;;;;;;;;;;26.80;46.70;25.70;100586.00;;;;5088812;28;20036;-72
2022/08/14 10:14:20;;;;;;;5.45;4.50;;;26.90;46.60;25.70;100581.00;;;;5093043;28;19918;-72
2022/08/14 10:17:06;;;;;;;4.80;4.40;;;26.90;46.80;25.70;100591.00;;;;5088481;28;20048;-72
2022/08/14 10:19:52;;;;;;;4.47;4.07;;;26.90;46.80;25.70;100580.00;;;;5095224;28;20051;-72
2022/08/14 10:22:38;;;;;;;5.22;4.72;;;26.90;46.80;25.70;100592.00;;;;5088421;28;20087;-72
2022/08/14 10:25:25;;;;;;;4.95;4.45;;;26.90;46.90;25.80;100578.00;;;;5091843;28;20089;-72
2022/08/14 10:28:14;;;;;;;4.35;3.95;;;26.90;46.90;25.80;100559.00;;;;5075361;28;20045;-72
2022/08/14 10:31:01;;;;;;;5.47;4.85;;;26.90;46.90;25.80;100566.00;;;;5074723;28;20036;-72
2022/08/14 10:34:05;;;;;;;4.72;4.25;;;26.90;46.90;25.70;100559.00;;;;5078956;28;20114;-73
2022/08/14 10:37:00;;;;;;;6.20;3.97;;;26.90;46.90;25.80;100556.00;;;;5076937;28;20047;-72
2022/08/14 10:40:00;;;;;;;7.18;4.30;;;26.90;46.70;25.80;100540.00;;;;5071573;28;20159;-72
2022/08/14 10:42:46;;;;;;;4.65;4.25;;;26.90;46.80;25.70;100545.00;;;;5095175;28;20035;-72
2022/08/14 10:45:33;;;;;;;4.40;4.00;;;26.80;46.70;25.70;100540.00;;;;5091285;28;20115;-72
2022/08/14 10:48:20;;;;;;;4.97;4.47;;;26.90;46.80;25.80;100533.00;;;;5074040;28;20581;-72
2022/08/14 10:51:06;;;;;;;5.60;4.50;;;26.90;46.70;25.80;100527.00;;;;5069848;28;20059;-72
2022/08/14 10:53:57;;;;;;;4.38;3.97;;;26.90;46.80;25.70;100520.00;;;;5071933;28;20113;-72
2022/08/14 10:56:43;;;;;;;5.32;3.63;;;26.90;46.70;25.70;100508.00;;;;5086319;28;20055;-72
2022/08/14 10:59:32;;;;;;;5.07;4.15;;;26.90;46.80;25.70;100524.00;;;;5086909;28;20370;-72
2022/08/14 11:02:29;;;;;;;4.88;4.38;;;26.90;46.70;25.70;100519.00;;;;5065516;28;20043;-72
2022/08/14 11:05:17;;;;;;;5.85;3.92;;;26.80;46.60;25.70;100516.00;;;;5077710;28;20065;-72
2022/08/14 11:08:03;;;;;;;4.10;3.75;;;26.90;46.60;25.70;100516.00;;;;5073411;28;20501;-72
2022/08/14 11:10:55;;;;;;;4.00;3.63;;;26.90;46.60;25.70;100504.00;;;;5095128;28;20032;-72
2022/08/14 11:13:45;;;;;;;3.97;3.63;;;26.90;46.60;25.70;100495.00;;;;5076195;28;20564;-72
2022/08/14 11:16:31;;;;;;;4.70;4.00;;;26.90;46.60;25.70;100491.00;;;;5083084;28;20094;-72
2022/08/14 11:19:18;;;;;;;4.50;4.10;;;26.90;46.60;25.70;100493.00;;;;5077063;28;20537;-72
2022/08/14 11:22:04;;;;;;;5.07;3.37;;;26.90;46.60;25.80;100492.00;;;;5058257;28;20024;-72
2022/08/14 11:24:50;;;;;;;4.22;3.67;;;26.90;46.50;25.80;100492.00;;;;5067513;28;20067;-72
2022/08/14 11:27:38;;;;;;;3.70;3.40;;;27.00;47.30;25.80;100490.00;;;;5076028;28;20069;-72
2022/08/14 11:30:28;;;;;;;;;;;26.90;46.50;25.70;100492.00;;;;5092862;28;20503;-72
2022/08/14 11:33:14;;;;;;;4.70;3.65;;;26.90;46.40;25.70;100487.00;;;;5101295;28;19912;-73
2022/08/14 11:36:04;;;;;;;4.22;3.83;;;27.00;46.40;25.70;100486.00;;;;5064381;28;20376;-72
2022/08/14 11:38:51;;;;;;;4.35;3.85;;;27.00;46.40;25.70;100477.00;;;;5050357;28;20036;-72
2022/08/14 11:41:40;;;;;;;4.32;3.92;;;26.90;46.40;25.80;100479.00;;;;5059828;28;20037;-72
2022/08/14 11:44:30;;;;;;;4.38;3.90;;;27.00;46.50;25.80;100477.00;;;;5079195;28;20043;-72
2022/08/14 11:47:18;;;;;;;3.95;3.58;;;26.90;46.40;25.80;100469.00;;;;5056265;28;20489;-72
2022/08/14 11:50:16;;;;;;;;;;;27.00;46.50;25.70;100467.00;;;;5072312;28;20036;-73
2022/08/14 11:53:03;;;;;;;4.35;3.38;;;27.00;46.40;25.80;100460.00;;;;5070349;28;20314;-73
2022/08/14 11:55:55;;;;;;;4.68;3.80;;;27.00;46.40;25.80;100462.00;;;;5085292;28;20024;-67
2022/08/14 11:58:42;;;;;;;4.80;4.00;;;27.00;46.40;25.80;100455.00;;;;5058651;28;20048;-67
2022/08/14 12:01:29;;;;;;;4.38;3.88;;;26.90;46.40;25.80;100454.00;;;;5070840;28;20039;-67
2022/08/14 12:04:22;;;;;;;4.72;3.75;;;27.00;46.50;25.80;100462.00;;;;5080650;28;20036;-67
2022/08/14 12:07:08;;;;;;;6.03;3.60;;;27.00;46.50;25.80;100463.00;;;;5071810;28;20322;-67
2022/08/14 12:09:55;;;;;;;4.05;3.65;;;27.00;46.50;25.80;100444.00;;;;5086995;28;20032;-67
2022/08/14 12:12:41;;;;;;;4.38;3.97;;;27.00;46.50;25.80;100438.00;;;;5062228;28;20032;-67
2022/08/14 12:15:32;;;;;;;3.92;3.63;;;27.00;46.50;25.80;100433.00;;;;5065606;28;20431;-67
2022/08/14 12:18:33;;;;;;;4.05;3.65;;;27.00;46.50;25.80;100421.00;;;;5060427;28;20456;-67
2022/08/14 12:21:23;;;;;;;5.43;3.70;;;27.00;46.50;25.80;100414.00;;;;5088824;28;20802;-67
2022/08/14 12:24:09;;;;;;;4.78;3.83;;;27.00;46.60;25.80;100418.00;;;;5088664;28;20040;-67
2022/08/14 12:26:56;;;;;;;5.05;4.10;;;27.10;46.60;25.80;100428.00;;;;5084083;28;20074;-67
2022/08/14 12:29:52;;;;;;;4.18;3.78;;;27.00;46.60;25.80;100425.00;;;;5077670;28;20048;-67
2022/08/14 12:32:47;;;;;;;4.25;3.88;;;27.00;46.60;25.90;100412.00;;;;5087746;28;20047;-67
2022/08/14 12:35:41;;;;;;;4.35;3.90;;;27.00;46.60;25.90;100419.00;;;;5075556;28;20082;-67
2022/08/14 12:38:40;;;;;;;5.75;4.05;;;27.00;46.60;25.90;100407.00;;;;5087380;28;20040;-67